sensor_id;sensor_type;location;lat;lon;timestamp;P1;durP1;ratioP1;P2;durP2;ratioP2
70078;SDS011;57451;52.496;13.456;2023-04-25T00:01:22;6.55;;;2.40;;
70078;SDS011;57451;52.496;13.456;2023-04-25T00:03:49;5.17;;;2.40;;
70078;SDS011;57451;52.496;13.456;2023-04-25T00:06:17;5.85;;;2.20;;
70078;SDS011;57451;52.496;13.456;2023-04-25T00:08:45;4.38;;;2.20;;
70078;SDS011;57451;52.496;13.456;2023-04-25T00:11:13;6.53;;;2.13;;
70078;SDS011;57451;52.496;13.456;2023-04-25T00:13:40;5.18;;;2.10;;
70078;SDS011;57451;52.496;13.456;2023-04-25T00:16:08;4.80;;;1.90;;
70078;SDS011;57451;52.496;13.456;2023-04-25T00:18:35;5.20;;;1.90;;
70078;SDS011;57451;52.496;13.456;2023-04-25T00:21:03;4.53;;;1.70;;
70078;SDS011;57451;52.496;13.456;2023-04-25T00:23:32;6.38;;;2.13;;
70078;SDS011;57451;52.496;13.456;2023-04-25T00:26:02;5.32;;;1.90;;
70078;SDS011;57451;52.496;13.456;2023-04-25T00:28:31;7.87;;;2.17;;
70078;SDS011;57451;52.496;13.456;2023-04-25T00:30:58;5.50;;;1.90;;
70078;SDS011;57451;52.496;13.456;2023-04-25T00:33:25;5.45;;;2.10;;
70078;SDS011;57451;52.496;13.456;2023-04-25T00:35:53;5.63;;;2.25;;
70078;SDS011;57451;52.496;13.456;2023-04-25T00:38:20;7.72;;;2.03;;
70078;SDS011;57451;52.496;13.456;2023-04-25T00:40:48;5.87;;;2.33;;
70078;SDS011;57451;52.496;13.456;2023-04-25T00:43:15;5.32;;;2.03;;
70078;SDS011;57451;52.496;13.456;2023-04-25T00:45:44;5.93;;;2.00;;
70078;SDS011;57451;52.496;13.456;2023-04-25T00:48:15;6.68;;;2.30;;
70078;SDS011;57451;52.496;13.456;2023-04-25T00:50:44;6.97;;;2.08;;
70078;SDS011;57451;52.496;13.456;2023-04-25T00:53:17;8.13;;;2.00;;
70078;SDS011;57451;52.496;13.456;2023-04-25T00:55:45;4.93;;;1.95;;
70078;SDS011;57451;52.496;13.456;2023-04-25T00:58:12;6.82;;;2.10;;
70078;SDS011;57451;52.496;13.456;2023-04-25T01:00:40;6.20;;;2.22;;
70078;SDS011;57451;52.496;13.456;2023-04-25T01:03:10;5.40;;;2.13;;
70078;SDS011;57451;52.496;13.456;2023-04-25T01:05:37;6.63;;;2.40;;
70078;SDS011;57451;52.496;13.456;2023-04-25T01:08:05;5.38;;;2.30;;
70078;SDS011;57451;52.496;13.456;2023-04-25T01:10:33;7.40;;;2.47;;
70078;SDS011;57451;52.496;13.456;2023-04-25T01:13:00;5.65;;;2.08;;
70078;SDS011;57451;52.496;13.456;2023-04-25T01:15:28;6.63;;;2.70;;
70078;SDS011;57451;52.496;13.456;2023-04-25T01:17:55;5.27;;;2.60;;
70078;SDS011;57451;52.496;13.456;2023-04-25T01:20:25;7.03;;;2.60;;
70078;SDS011;57451;52.496;13.456;2023-04-25T01:22:54;7.20;;;2.20;;
70078;SDS011;57451;52.496;13.456;2023-04-25T01:25:23;6.20;;;2.65;;
70078;SDS011;57451;52.496;13.456;2023-04-25T01:27:51;6.72;;;2.40;;
70078;SDS011;57451;52.496;13.456;2023-04-25T01:30:18;6.90;;;2.50;;
70078;SDS011;57451;52.496;13.456;2023-04-25T01:32:46;6.05;;;2.47;;
70078;SDS011;57451;52.496;13.456;2023-04-25T01:35:14;7.10;;;2.90;;
70078;SDS011;57451;52.496;13.456;2023-04-25T01:37:42;6.88;;;2.38;;
70078;SDS011;57451;52.496;13.456;2023-04-25T01:40:12;6.70;;;2.47;;
70078;SDS011;57451;52.496;13.456;2023-04-25T01:42:41;8.03;;;2.50;;
70078;SDS011;57451;52.496;13.456;2023-04-25T01:45:09;7.88;;;2.42;;
70078;SDS011;57451;52.496;13.456;2023-04-25T01:47:37;6.22;;;2.60;;
70078;SDS011;57451;52.496;13.456;2023-04-25T01:50:07;6.20;;;2.53;;
70078;SDS011;57451;52.496;13.456;2023-04-25T01:52:36;6.78;;;2.83;;
70078;SDS011;57451;52.496;13.456;2023-04-25T01:55:04;6.33;;;2.50;;
70078;SDS011;57451;52.496;13.456;2023-04-25T01:57:35;8.73;;;2.78;;
70078;SDS011;57451;52.496;13.456;2023-04-25T02:00:04;7.80;;;2.80;;
70078;SDS011;57451;52.496;13.456;2023-04-25T02:02:39;6.50;;;2.90;;
70078;SDS011;57451;52.496;13.456;2023-04-25T02:05:17;8.40;;;3.15;;
70078;SDS011;57451;52.496;13.456;2023-04-25T02:07:44;8.47;;;2.50;;
70078;SDS011;57451;52.496;13.456;2023-04-25T02:10:11;8.40;;;2.92;;
70078;SDS011;57451;52.496;13.456;2023-04-25T02:12:52;7.13;;;2.28;;
70078;SDS011;57451;52.496;13.456;2023-04-25T02:15:34;7.40;;;2.70;;
70078;SDS011;57451;52.496;13.456;2023-04-25T02:18:13;5.88;;;2.70;;
70078;SDS011;57451;52.496;13.456;2023-04-25T02:20:43;7.57;;;3.23;;
70078;SDS011;57451;52.496;13.456;2023-04-25T02:23:10;7.95;;;2.22;;
70078;SDS011;57451;52.496;13.456;2023-04-25T02:25:38;7.57;;;2.67;;
70078;SDS011;57451;52.496;13.456;2023-04-25T02:28:06;7.88;;;2.88;;
70078;SDS011;57451;52.496;13.456;2023-04-25T02:30:35;6.43;;;2.67;;
70078;SDS011;57451;52.496;13.456;2023-04-25T02:33:04;7.83;;;2.60;;
70078;SDS011;57451;52.496;13.456;2023-04-25T02:35:31;8.45;;;2.75;;
70078;SDS011;57451;52.496;13.456;2023-04-25T02:37:59;8.85;;;3.20;;
70078;SDS011;57451;52.496;13.456;2023-04-25T02:40:26;7.50;;;2.67;;
70078;SDS011;57451;52.496;13.456;2023-04-25T02:42:53;6.28;;;3.15;;
70078;SDS011;57451;52.496;13.456;2023-04-25T02:45:22;7.47;;;3.07;;
70078;SDS011;57451;52.496;13.456;2023-04-25T02:47:49;9.32;;;3.10;;
70078;SDS011;57451;52.496;13.456;2023-04-25T02:50:18;7.00;;;2.90;;
70078;SDS011;57451;52.496;13.456;2023-04-25T02:52:45;10.18;;;3.30;;
70078;SDS011;57451;52.496;13.456;2023-04-25T02:55:20;8.85;;;3.60;;
70078;SDS011;57451;52.496;13.456;2023-04-25T02:57:50;10.00;;;3.33;;
70078;SDS011;57451;52.496;13.456;2023-04-25T03:00:37;7.88;;;3.38;;
70078;SDS011;57451;52.496;13.456;2023-04-25T03:03:05;6.85;;;3.08;;
70078;SDS011;57451;52.496;13.456;2023-04-25T03:05:36;6.60;;;3.13;;
70078;SDS011;57451;52.496;13.456;2023-04-25T03:08:04;8.38;;;3.20;;
70078;SDS011;57451;52.496;13.456;2023-04-25T03:10:37;6.47;;;3.20;;
70078;SDS011;57451;52.496;13.456;2023-04-25T03:13:08;11.57;;;3.60;;
70078;SDS011;57451;52.496;13.456;2023-04-25T03:15:37;9.05;;;3.92;;
70078;SDS011;57451;52.496;13.456;2023-04-25T03:18:05;7.40;;;3.50;;
70078;SDS011;57451;52.496;13.456;2023-04-25T03:20:51;7.57;;;3.63;;
70078;SDS011;57451;52.496;13.456;2023-04-25T03:23:19;8.73;;;3.10;;
70078;SDS011;57451;52.496;13.456;2023-04-25T03:25:53;12.13;;;3.40;;
70078;SDS011;57451;52.496;13.456;2023-04-25T03:28:21;8.48;;;3.25;;
70078;SDS011;57451;52.496;13.456;2023-04-25T03:30:51;8.02;;;3.65;;
70078;SDS011;57451;52.496;13.456;2023-04-25T03:33:18;6.75;;;3.50;;
70078;SDS011;57451;52.496;13.456;2023-04-25T03:35:45;10.40;;;3.63;;
70078;SDS011;57451;52.496;13.456;2023-04-25T03:38:13;10.82;;;3.95;;
70078;SDS011;57451;52.496;13.456;2023-04-25T03:40:40;6.88;;;3.08;;
70078;SDS011;57451;52.496;13.456;2023-04-25T03:43:14;7.32;;;3.40;;
70078;SDS011;57451;52.496;13.456;2023-04-25T03:45:49;10.20;;;3.63;;
70078;SDS011;57451;52.496;13.456;2023-04-25T03:48:20;8.67;;;3.27;;
70078;SDS011;57451;52.496;13.456;2023-04-25T03:50:49;10.55;;;3.28;;
70078;SDS011;57451;52.496;13.456;2023-04-25T03:53:16;9.70;;;3.90;;
70078;SDS011;57451;52.496;13.456;2023-04-25T03:56:06;12.02;;;3.92;;
70078;SDS011;57451;52.496;13.456;2023-04-25T03:58:35;8.35;;;3.55;;
70078;SDS011;57451;52.496;13.456;2023-04-25T04:01:04;6.93;;;3.10;;
70078;SDS011;57451;52.496;13.456;2023-04-25T04:03:36;7.63;;;3.50;;
70078;SDS011;57451;52.496;13.456;2023-04-25T04:06:04;11.48;;;3.63;;
70078;SDS011;57451;52.496;13.456;2023-04-25T04:08:36;9.20;;;3.28;;
70078;SDS011;57451;52.496;13.456;2023-04-25T04:11:03;12.85;;;3.92;;
70078;SDS011;57451;52.496;13.456;2023-04-25T04:13:32;8.43;;;3.67;;
70078;SDS011;57451;52.496;13.456;2023-04-25T04:16:01;8.57;;;3.38;;
70078;SDS011;57451;52.496;13.456;2023-04-25T04:18:29;9.00;;;3.35;;
70078;SDS011;57451;52.496;13.456;2023-04-25T04:20:57;8.65;;;3.35;;
70078;SDS011;57451;52.496;13.456;2023-04-25T04:23:27;7.80;;;3.25;;
70078;SDS011;57451;52.496;13.456;2023-04-25T04:25:55;8.70;;;3.60;;
70078;SDS011;57451;52.496;13.456;2023-04-25T04:28:41;8.55;;;3.47;;
70078;SDS011;57451;52.496;13.456;2023-04-25T04:31:25;6.50;;;3.38;;
70078;SDS011;57451;52.496;13.456;2023-04-25T04:33:54;9.02;;;3.35;;
70078;SDS011;57451;52.496;13.456;2023-04-25T04:36:21;7.95;;;3.35;;
70078;SDS011;57451;52.496;13.456;2023-04-25T04:38:50;8.23;;;3.33;;
70078;SDS011;57451;52.496;13.456;2023-04-25T04:41:28;8.88;;;3.20;;
70078;SDS011;57451;52.496;13.456;2023-04-25T04:44:25;8.25;;;3.28;;
70078;SDS011;57451;52.496;13.456;2023-04-25T04:47:11;8.90;;;3.83;;
70078;SDS011;57451;52.496;13.456;2023-04-25T04:50:02;7.32;;;3.10;;
70078;SDS011;57451;52.496;13.456;2023-04-25T04:52:48;5.60;;;2.80;;
70078;SDS011;57451;52.496;13.456;2023-04-25T04:55:34;7.32;;;3.00;;
70078;SDS011;57451;52.496;13.456;2023-04-25T04:58:11;7.32;;;3.20;;
70078;SDS011;57451;52.496;13.456;2023-04-25T05:00:47;7.68;;;3.35;;
70078;SDS011;57451;52.496;13.456;2023-04-25T05:03:32;6.95;;;2.95;;
70078;SDS011;57451;52.496;13.456;2023-04-25T05:06:13;6.07;;;3.23;;
70078;SDS011;57451;52.496;13.456;2023-04-25T05:08:51;9.32;;;3.38;;
70078;SDS011;57451;52.496;13.456;2023-04-25T05:11:43;7.65;;;3.10;;
70078;SDS011;57451;52.496;13.456;2023-04-25T05:14:37;10.60;;;3.25;;
70078;SDS011;57451;52.496;13.456;2023-04-25T05:17:23;7.75;;;3.58;;
70078;SDS011;57451;52.496;13.456;2023-04-25T05:19:59;7.70;;;3.50;;
70078;SDS011;57451;52.496;13.456;2023-04-25T05:25:17;9.10;;;3.50;;
70078;SDS011;57451;52.496;13.456;2023-04-25T05:27:58;6.85;;;2.88;;
70078;SDS011;57451;52.496;13.456;2023-04-25T05:30:40;7.88;;;3.60;;
70078;SDS011;57451;52.496;13.456;2023-04-25T05:33:28;8.70;;;3.33;;
70078;SDS011;57451;52.496;13.456;2023-04-25T05:35:56;8.88;;;3.95;;
70078;SDS011;57451;52.496;13.456;2023-04-25T05:38:24;6.95;;;3.60;;
70078;SDS011;57451;52.496;13.456;2023-04-25T05:41:25;7.38;;;3.20;;
70078;SDS011;57451;52.496;13.456;2023-04-25T05:43:57;8.02;;;3.40;;
70078;SDS011;57451;52.496;13.456;2023-04-25T05:46:30;7.60;;;3.20;;
70078;SDS011;57451;52.496;13.456;2023-04-25T05:49:17;9.43;;;3.83;;
70078;SDS011;57451;52.496;13.456;2023-04-25T05:52:18;7.32;;;3.33;;
70078;SDS011;57451;52.496;13.456;2023-04-25T05:54:49;8.95;;;3.33;;
70078;SDS011;57451;52.496;13.456;2023-04-25T05:57:22;7.50;;;3.60;;
70078;SDS011;57451;52.496;13.456;2023-04-25T05:59:51;8.90;;;3.87;;
70078;SDS011;57451;52.496;13.456;2023-04-25T06:02:19;8.90;;;3.90;;
70078;SDS011;57451;52.496;13.456;2023-04-25T06:04:49;10.57;;;4.18;;
70078;SDS011;57451;52.496;13.456;2023-04-25T06:07:18;6.72;;;3.78;;
70078;SDS011;57451;52.496;13.456;2023-04-25T06:09:46;10.15;;;3.83;;
70078;SDS011;57451;52.496;13.456;2023-04-25T06:12:14;7.63;;;3.67;;
70078;SDS011;57451;52.496;13.456;2023-04-25T06:14:43;7.72;;;3.55;;
70078;SDS011;57451;52.496;13.456;2023-04-25T06:17:11;9.30;;;3.67;;
70078;SDS011;57451;52.496;13.456;2023-04-25T06:19:38;11.10;;;4.35;;
70078;SDS011;57451;52.496;13.456;2023-04-25T06:22:06;11.52;;;4.05;;
70078;SDS011;57451;52.496;13.456;2023-04-25T06:24:38;8.17;;;3.87;;
70078;SDS011;57451;52.496;13.456;2023-04-25T06:27:05;9.65;;;4.00;;
70078;SDS011;57451;52.496;13.456;2023-04-25T06:29:33;8.98;;;4.28;;
70078;SDS011;57451;52.496;13.456;2023-04-25T06:32:02;7.18;;;3.85;;
70078;SDS011;57451;52.496;13.456;2023-04-25T06:34:29;10.55;;;3.90;;
70078;SDS011;57451;52.496;13.456;2023-04-25T06:36:57;7.90;;;3.97;;
70078;SDS011;57451;52.496;13.456;2023-04-25T06:39:25;8.68;;;3.80;;
70078;SDS011;57451;52.496;13.456;2023-04-25T06:41:52;9.90;;;4.28;;
70078;SDS011;57451;52.496;13.456;2023-04-25T06:44:46;7.72;;;3.78;;
70078;SDS011;57451;52.496;13.456;2023-04-25T06:47:14;11.70;;;4.10;;
70078;SDS011;57451;52.496;13.456;2023-04-25T06:49:42;10.50;;;4.67;;
70078;SDS011;57451;52.496;13.456;2023-04-25T06:52:10;10.18;;;4.30;;
70078;SDS011;57451;52.496;13.456;2023-04-25T06:54:38;10.45;;;4.60;;
70078;SDS011;57451;52.496;13.456;2023-04-25T06:57:17;8.90;;;3.85;;
70078;SDS011;57451;52.496;13.456;2023-04-25T06:59:45;10.23;;;4.28;;
70078;SDS011;57451;52.496;13.456;2023-04-25T07:02:12;6.40;;;3.67;;
70078;SDS011;57451;52.496;13.456;2023-04-25T07:04:42;9.30;;;4.07;;
70078;SDS011;57451;52.496;13.456;2023-04-25T07:07:09;8.13;;;3.92;;
70078;SDS011;57451;52.496;13.456;2023-04-25T07:09:43;10.65;;;3.70;;
70078;SDS011;57451;52.496;13.456;2023-04-25T07:12:10;8.45;;;3.95;;
70078;SDS011;57451;52.496;13.456;2023-04-25T07:14:38;8.07;;;3.80;;
70078;SDS011;57451;52.496;13.456;2023-04-25T07:17:07;11.23;;;4.35;;
70078;SDS011;57451;52.496;13.456;2023-04-25T07:19:35;9.38;;;3.67;;
70078;SDS011;57451;52.496;13.456;2023-04-25T07:22:05;7.30;;;3.45;;
70078;SDS011;57451;52.496;13.456;2023-04-25T07:24:35;8.35;;;3.40;;
70078;SDS011;57451;52.496;13.456;2023-04-25T07:27:03;7.50;;;3.60;;
70078;SDS011;57451;52.496;13.456;2023-04-25T07:29:39;6.90;;;3.10;;
70078;SDS011;57451;52.496;13.456;2023-04-25T07:32:06;10.88;;;3.80;;
70078;SDS011;57451;52.496;13.456;2023-04-25T07:34:35;8.68;;;3.80;;
70078;SDS011;57451;52.496;13.456;2023-04-25T07:37:04;10.20;;;3.70;;
70078;SDS011;57451;52.496;13.456;2023-04-25T07:39:40;8.03;;;3.40;;
70078;SDS011;57451;52.496;13.456;2023-04-25T07:42:07;10.25;;;3.35;;
70078;SDS011;57451;52.496;13.456;2023-04-25T07:44:37;9.93;;;3.53;;
70078;SDS011;57451;52.496;13.456;2023-04-25T07:47:08;9.75;;;3.65;;
70078;SDS011;57451;52.496;13.456;2023-04-25T07:49:37;12.40;;;3.50;;
70078;SDS011;57451;52.496;13.456;2023-04-25T07:52:05;8.87;;;3.73;;
70078;SDS011;57451;52.496;13.456;2023-04-25T07:54:34;12.43;;;3.58;;
70078;SDS011;57451;52.496;13.456;2023-04-25T07:57:10;10.38;;;4.38;;
70078;SDS011;57451;52.496;13.456;2023-04-25T07:59:38;11.13;;;3.97;;
70078;SDS011;57451;52.496;13.456;2023-04-25T08:02:05;12.63;;;3.22;;
70078;SDS011;57451;52.496;13.456;2023-04-25T08:04:33;11.43;;;3.60;;
70078;SDS011;57451;52.496;13.456;2023-04-25T08:07:07;12.00;;;3.10;;
70078;SDS011;57451;52.496;13.456;2023-04-25T08:09:41;12.38;;;3.47;;
70078;SDS011;57451;52.496;13.456;2023-04-25T08:12:16;12.15;;;3.47;;
70078;SDS011;57451;52.496;13.456;2023-04-25T08:14:43;14.52;;;3.90;;
70078;SDS011;57451;52.496;13.456;2023-04-25T08:17:11;12.83;;;3.10;;
70078;SDS011;57451;52.496;13.456;2023-04-25T08:19:40;14.10;;;4.13;;
70078;SDS011;57451;52.496;13.456;2023-04-25T08:22:16;14.05;;;3.58;;
70078;SDS011;57451;52.496;13.456;2023-04-25T08:24:52;18.77;;;6.10;;
70078;SDS011;57451;52.496;13.456;2023-04-25T08:27:20;13.43;;;4.30;;
70078;SDS011;57451;52.496;13.456;2023-04-25T08:29:48;14.00;;;3.80;;
70078;SDS011;57451;52.496;13.456;2023-04-25T08:32:15;10.93;;;3.20;;
70078;SDS011;57451;52.496;13.456;2023-04-25T08:34:55;11.95;;;3.15;;
70078;SDS011;57451;52.496;13.456;2023-04-25T08:37:23;10.52;;;3.30;;
70078;SDS011;57451;52.496;13.456;2023-04-25T08:39:59;13.25;;;3.67;;
70078;SDS011;57451;52.496;13.456;2023-04-25T08:42:45;13.20;;;3.40;;
70078;SDS011;57451;52.496;13.456;2023-04-25T08:45:13;9.63;;;3.08;;
70078;SDS011;57451;52.496;13.456;2023-04-25T08:47:42;14.02;;;3.40;;
70078;SDS011;57451;52.496;13.456;2023-04-25T08:50:12;12.43;;;3.05;;
70078;SDS011;57451;52.496;13.456;2023-04-25T08:52:43;12.15;;;3.05;;
70078;SDS011;57451;52.496;13.456;2023-04-25T08:55:13;13.47;;;3.23;;
70078;SDS011;57451;52.496;13.456;2023-04-25T08:57:41;16.85;;;3.10;;
70078;SDS011;57451;52.496;13.456;2023-04-25T09:00:12;11.98;;;3.03;;
70078;SDS011;57451;52.496;13.456;2023-04-25T09:02:43;10.23;;;2.45;;
70078;SDS011;57451;52.496;13.456;2023-04-25T09:05:12;10.55;;;2.90;;
70078;SDS011;57451;52.496;13.456;2023-04-25T09:07:41;12.77;;;2.53;;
70078;SDS011;57451;52.496;13.456;2023-04-25T09:10:09;8.82;;;2.42;;
70078;SDS011;57451;52.496;13.456;2023-04-25T09:12:38;10.18;;;2.33;;
70078;SDS011;57451;52.496;13.456;2023-04-25T09:15:08;10.55;;;2.60;;
70078;SDS011;57451;52.496;13.456;2023-04-25T09:18:05;10.57;;;2.17;;
70078;SDS011;57451;52.496;13.456;2023-04-25T09:20:41;6.60;;;1.67;;
70078;SDS011;57451;52.496;13.456;2023-04-25T09:23:27;9.23;;;2.55;;
70078;SDS011;57451;52.496;13.456;2023-04-25T09:25:55;7.45;;;2.22;;
70078;SDS011;57451;52.496;13.456;2023-04-25T09:28:23;8.55;;;2.33;;
70078;SDS011;57451;52.496;13.456;2023-04-25T09:30:54;11.10;;;2.20;;
70078;SDS011;57451;52.496;13.456;2023-04-25T09:33:29;10.70;;;2.77;;
70078;SDS011;57451;52.496;13.456;2023-04-25T09:36:02;11.48;;;2.80;;
70078;SDS011;57451;52.496;13.456;2023-04-25T09:39:04;9.35;;;2.30;;
70078;SDS011;57451;52.496;13.456;2023-04-25T09:41:47;10.27;;;2.72;;
70078;SDS011;57451;52.496;13.456;2023-04-25T09:44:15;10.93;;;2.60;;
70078;SDS011;57451;52.496;13.456;2023-04-25T09:46:49;9.97;;;2.40;;
70078;SDS011;57451;52.496;13.456;2023-04-25T09:49:24;8.10;;;2.00;;
70078;SDS011;57451;52.496;13.456;2023-04-25T09:52:02;7.45;;;2.00;;
70078;SDS011;57451;52.496;13.456;2023-04-25T09:54:37;5.65;;;1.88;;
70078;SDS011;57451;52.496;13.456;2023-04-25T09:57:12;10.07;;;1.92;;
70078;SDS011;57451;52.496;13.456;2023-04-25T09:59:45;9.37;;;2.00;;
70078;SDS011;57451;52.496;13.456;2023-04-25T10:02:14;7.15;;;1.80;;
70078;SDS011;57451;52.496;13.456;2023-04-25T10:04:44;7.93;;;1.92;;
70078;SDS011;57451;52.496;13.456;2023-04-25T10:07:20;11.80;;;2.60;;
70078;SDS011;57451;52.496;13.456;2023-04-25T10:09:54;6.90;;;2.00;;
70078;SDS011;57451;52.496;13.456;2023-04-25T10:12:26;7.53;;;2.10;;
70078;SDS011;57451;52.496;13.456;2023-04-25T10:14:53;5.80;;;1.48;;
70078;SDS011;57451;52.496;13.456;2023-04-25T10:17:21;8.80;;;2.10;;
70078;SDS011;57451;52.496;13.456;2023-04-25T10:19:50;9.13;;;2.05;;
70078;SDS011;57451;52.496;13.456;2023-04-25T10:22:18;10.43;;;2.40;;
70078;SDS011;57451;52.496;13.456;2023-04-25T10:25:04;7.30;;;2.23;;
70078;SDS011;57451;52.496;13.456;2023-04-25T10:27:34;9.82;;;2.10;;
70078;SDS011;57451;52.496;13.456;2023-04-25T10:30:02;8.23;;;1.90;;
70078;SDS011;57451;52.496;13.456;2023-04-25T10:32:31;9.13;;;2.05;;
70078;SDS011;57451;52.496;13.456;2023-04-25T10:35:09;9.18;;;2.08;;
70078;SDS011;57451;52.496;13.456;2023-04-25T10:37:38;6.70;;;2.23;;
70078;SDS011;57451;52.496;13.456;2023-04-25T10:40:11;16.85;;;2.42;;
70078;SDS011;57451;52.496;13.456;2023-04-25T10:42:40;10.13;;;2.47;;
70078;SDS011;57451;52.496;13.456;2023-04-25T10:45:08;8.32;;;2.25;;
70078;SDS011;57451;52.496;13.456;2023-04-25T10:47:36;8.15;;;2.42;;
70078;SDS011;57451;52.496;13.456;2023-04-25T10:50:10;7.60;;;2.40;;
70078;SDS011;57451;52.496;13.456;2023-04-25T10:52:38;13.55;;;2.30;;
70078;SDS011;57451;52.496;13.456;2023-04-25T10:55:07;8.02;;;2.20;;
70078;SDS011;57451;52.496;13.456;2023-04-25T10:57:40;9.23;;;2.03;;
70078;SDS011;57451;52.496;13.456;2023-04-25T11:00:09;8.70;;;2.33;;
70078;SDS011;57451;52.496;13.456;2023-04-25T11:02:42;5.70;;;1.83;;
70078;SDS011;57451;52.496;13.456;2023-04-25T11:05:19;8.80;;;2.42;;
70078;SDS011;57451;52.496;13.456;2023-04-25T11:07:49;9.23;;;2.25;;
70078;SDS011;57451;52.496;13.456;2023-04-25T11:10:33;7.50;;;2.13;;
70078;SDS011;57451;52.496;13.456;2023-04-25T11:13:04;7.88;;;2.20;;
70078;SDS011;57451;52.496;13.456;2023-04-25T11:15:32;9.00;;;2.30;;
70078;SDS011;57451;52.496;13.456;2023-04-25T11:17:59;7.75;;;2.20;;
70078;SDS011;57451;52.496;13.456;2023-04-25T11:20:27;10.43;;;2.28;;
70078;SDS011;57451;52.496;13.456;2023-04-25T11:22:57;7.65;;;2.35;;
70078;SDS011;57451;52.496;13.456;2023-04-25T11:25:25;9.82;;;2.30;;
70078;SDS011;57451;52.496;13.456;2023-04-25T11:27:53;8.27;;;1.83;;
70078;SDS011;57451;52.496;13.456;2023-04-25T11:30:23;9.80;;;2.20;;
70078;SDS011;57451;52.496;13.456;2023-04-25T11:32:51;10.40;;;1.90;;
70078;SDS011;57451;52.496;13.456;2023-04-25T11:35:20;8.73;;;1.85;;
70078;SDS011;57451;52.496;13.456;2023-04-25T11:37:49;6.38;;;2.00;;
70078;SDS011;57451;52.496;13.456;2023-04-25T11:40:17;5.33;;;1.60;;
70078;SDS011;57451;52.496;13.456;2023-04-25T11:42:45;6.85;;;1.38;;
70078;SDS011;57451;52.496;13.456;2023-04-25T11:45:13;4.40;;;1.60;;
70078;SDS011;57451;52.496;13.456;2023-04-25T11:47:43;7.45;;;1.60;;
70078;SDS011;57451;52.496;13.456;2023-04-25T11:50:10;9.05;;;1.88;;
70078;SDS011;57451;52.496;13.456;2023-04-25T11:52:38;7.97;;;1.60;;
70078;SDS011;57451;52.496;13.456;2023-04-25T11:55:07;5.50;;;1.58;;
70078;SDS011;57451;52.496;13.456;2023-04-25T11:57:37;6.53;;;1.80;;
70078;SDS011;57451;52.496;13.456;2023-04-25T12:00:06;7.10;;;1.88;;
70078;SDS011;57451;52.496;13.456;2023-04-25T12:02:46;7.47;;;1.48;;
70078;SDS011;57451;52.496;13.456;2023-04-25T12:05:15;6.93;;;1.83;;
70078;SDS011;57451;52.496;13.456;2023-04-25T12:08:08;8.32;;;1.63;;
70078;SDS011;57451;52.496;13.456;2023-04-25T12:10:37;8.40;;;1.58;;
70078;SDS011;57451;52.496;13.456;2023-04-25T12:13:19;7.47;;;1.95;;
70078;SDS011;57451;52.496;13.456;2023-04-25T12:15:47;5.97;;;1.67;;
70078;SDS011;57451;52.496;13.456;2023-04-25T12:18:18;10.73;;;2.47;;
70078;SDS011;57451;52.496;13.456;2023-04-25T12:20:46;11.23;;;2.20;;
70078;SDS011;57451;52.496;13.456;2023-04-25T12:23:13;6.90;;;1.77;;
70078;SDS011;57451;52.496;13.456;2023-04-25T12:25:41;7.97;;;2.10;;
70078;SDS011;57451;52.496;13.456;2023-04-25T12:28:10;9.90;;;2.05;;
70078;SDS011;57451;52.496;13.456;2023-04-25T12:30:51;9.13;;;1.87;;
70078;SDS011;57451;52.496;13.456;2023-04-25T12:33:24;6.70;;;1.98;;
70078;SDS011;57451;52.496;13.456;2023-04-25T12:35:52;6.13;;;1.63;;
70078;SDS011;57451;52.496;13.456;2023-04-25T12:38:20;7.38;;;2.05;;
70078;SDS011;57451;52.496;13.456;2023-04-25T12:40:49;7.50;;;1.73;;
70078;SDS011;57451;52.496;13.456;2023-04-25T12:43:16;7.07;;;1.77;;
70078;SDS011;57451;52.496;13.456;2023-04-25T12:45:44;5.70;;;1.73;;
70078;SDS011;57451;52.496;13.456;2023-04-25T12:48:11;8.93;;;1.95;;
70078;SDS011;57451;52.496;13.456;2023-04-25T12:50:40;8.57;;;2.20;;
70078;SDS011;57451;52.496;13.456;2023-04-25T12:53:08;9.02;;;3.00;;
70078;SDS011;57451;52.496;13.456;2023-04-25T12:55:35;7.47;;;2.13;;
70078;SDS011;57451;52.496;13.456;2023-04-25T12:58:02;6.45;;;1.77;;
70078;SDS011;57451;52.496;13.456;2023-04-25T13:00:30;7.30;;;2.15;;
70078;SDS011;57451;52.496;13.456;2023-04-25T13:02:58;8.40;;;1.70;;
70078;SDS011;57451;52.496;13.456;2023-04-25T13:05:26;9.25;;;1.73;;
70078;SDS011;57451;52.496;13.456;2023-04-25T13:07:54;6.77;;;1.80;;
70078;SDS011;57451;52.496;13.456;2023-04-25T13:10:22;6.95;;;1.90;;
70078;SDS011;57451;52.496;13.456;2023-04-25T13:12:49;4.90;;;1.50;;
70078;SDS011;57451;52.496;13.456;2023-04-25T13:15:17;9.13;;;1.93;;
70078;SDS011;57451;52.496;13.456;2023-04-25T13:17:44;6.68;;;1.88;;
70078;SDS011;57451;52.496;13.456;2023-04-25T13:20:11;5.07;;;1.50;;
70078;SDS011;57451;52.496;13.456;2023-04-25T13:22:40;4.22;;;1.33;;
70078;SDS011;57451;52.496;13.456;2023-04-25T13:25:09;5.00;;;1.33;;
70078;SDS011;57451;52.496;13.456;2023-04-25T13:27:37;5.95;;;1.42;;
70078;SDS011;57451;52.496;13.456;2023-04-25T13:30:06;6.05;;;1.50;;
70078;SDS011;57451;52.496;13.456;2023-04-25T13:32:34;5.73;;;1.30;;
70078;SDS011;57451;52.496;13.456;2023-04-25T13:35:02;5.20;;;1.50;;
70078;SDS011;57451;52.496;13.456;2023-04-25T13:37:35;9.45;;;1.70;;
70078;SDS011;57451;52.496;13.456;2023-04-25T13:40:02;6.57;;;1.40;;
70078;SDS011;57451;52.496;13.456;2023-04-25T13:42:33;5.70;;;1.65;;
70078;SDS011;57451;52.496;13.456;2023-04-25T13:45:00;8.77;;;1.50;;
70078;SDS011;57451;52.496;13.456;2023-04-25T13:47:27;5.18;;;1.40;;
70078;SDS011;57451;52.496;13.456;2023-04-25T13:49:55;6.22;;;1.70;;
70078;SDS011;57451;52.496;13.456;2023-04-25T13:52:22;8.00;;;1.70;;
70078;SDS011;57451;52.496;13.456;2023-04-25T13:54:51;6.93;;;1.65;;
70078;SDS011;57451;52.496;13.456;2023-04-25T13:57:18;5.50;;;1.60;;
70078;SDS011;57451;52.496;13.456;2023-04-25T13:59:47;5.30;;;1.90;;
70078;SDS011;57451;52.496;13.456;2023-04-25T14:02:14;7.53;;;1.73;;
70078;SDS011;57451;52.496;13.456;2023-04-25T14:04:41;8.60;;;1.70;;
70078;SDS011;57451;52.496;13.456;2023-04-25T14:07:09;5.18;;;1.85;;
70078;SDS011;57451;52.496;13.456;2023-04-25T14:09:37;5.23;;;1.50;;
70078;SDS011;57451;52.496;13.456;2023-04-25T14:12:04;6.00;;;1.40;;
70078;SDS011;57451;52.496;13.456;2023-04-25T14:14:32;6.50;;;1.60;;
70078;SDS011;57451;52.496;13.456;2023-04-25T14:17:01;8.52;;;1.95;;
70078;SDS011;57451;52.496;13.456;2023-04-25T14:19:28;7.65;;;1.60;;
70078;SDS011;57451;52.496;13.456;2023-04-25T14:21:55;5.77;;;1.90;;
70078;SDS011;57451;52.496;13.456;2023-04-25T14:24:22;6.70;;;1.80;;
70078;SDS011;57451;52.496;13.456;2023-04-25T14:26:50;6.47;;;1.80;;
70078;SDS011;57451;52.496;13.456;2023-04-25T14:29:17;5.90;;;1.92;;
70078;SDS011;57451;52.496;13.456;2023-04-25T14:31:44;8.95;;;1.60;;
70078;SDS011;57451;52.496;13.456;2023-04-25T14:34:13;4.73;;;1.30;;
70078;SDS011;57451;52.496;13.456;2023-04-25T14:36:40;3.58;;;1.25;;
70078;SDS011;57451;52.496;13.456;2023-04-25T14:39:08;3.78;;;1.48;;
70078;SDS011;57451;52.496;13.456;2023-04-25T14:41:36;5.28;;;1.45;;
70078;SDS011;57451;52.496;13.456;2023-04-25T14:44:04;5.03;;;1.27;;
70078;SDS011;57451;52.496;13.456;2023-04-25T14:46:31;4.20;;;1.40;;
70078;SDS011;57451;52.496;13.456;2023-04-25T14:48:58;6.53;;;1.50;;
70078;SDS011;57451;52.496;13.456;2023-04-25T14:51:27;5.88;;;1.20;;
70078;SDS011;57451;52.496;13.456;2023-04-25T14:53:54;9.25;;;1.70;;
70078;SDS011;57451;52.496;13.456;2023-04-25T14:56:22;5.45;;;1.48;;